Time;durP1;ratioP1;P1;durP2;ratioP2;P2;SDS_P1;SDS_P2;PMS_P1;PMS_P2;Temp;Humidity;BMP_temperature;BMP_pressure;BME280_temperature;BME280_humidity;BME280_pressure;Samples;Min_cycle;Max_cycle;Signal;HPM_P1;HPM_P2
2022/01/12 00:00:27;;;;;;;51.63;21.03;;;;;;;-6.67;100.00;102833.91;5005718;28;20521;-74
2022/01/12 00:02:54;;;;;;;63.83;21.20;;;;;;;-6.43;100.00;102834.09;5006417;28;20565;-75
2022/01/12 00:05:21;;;;;;;56.70;22.00;;;;;;;-6.48;100.00;102845.53;5008006;28;20455;-74
2022/01/12 00:07:50;;;;;;;58.83;21.93;;;;;;;-6.42;100.00;102845.13;5007378;28;20482;-75
2022/01/12 00:10:18;;;;;;;56.23;21.43;;;;;;;-6.31;100.00;102842.66;5005631;28;20447;-74
2022/01/12 00:12:45;;;;;;;58.80;22.83;;;;;;;-6.30;100.00;102849.53;5005296;28;20487;-75
2022/01/12 00:15:12;;;;;;;56.33;21.77;;;;;;;-6.23;100.00;102834.75;5008578;28;20888;-75
2022/01/12 00:17:38;;;;;;;65.60;23.27;;;;;;;-6.11;100.00;102833.16;5009835;28;20479;-75
2022/01/12 00:20:05;;;;;;;63.13;22.50;;;;;;;-5.96;100.00;102825.81;5006340;28;20458;-74
2022/01/12 00:22:33;;;;;;;63.90;23.00;;;;;;;-5.97;100.00;102813.91;5004623;28;20476;-74
2022/01/12 00:25:12;;;;;;;54.33;22.57;;;;;;;-5.93;100.00;102816.75;5002808;28;20455;-75
2022/01/12 00:33:12;;;;;;;54.50;22.10;;;;;;;-5.75;100.00;102840.13;5000888;28;20529;-75
2022/01/12 00:35:41;;;;;;;59.00;21.73;;;;;;;-5.74;100.00;102841.88;5006510;28;20456;-76
2022/01/12 00:38:08;;;;;;;59.97;22.43;;;;;;;-5.66;100.00;102836.50;4988867;28;20559;-75
2022/01/12 00:40:39;;;;;;;67.23;23.57;;;;;;;-5.66;100.00;102827.22;5006445;28;20534;-74
2022/01/12 00:43:07;;;;;;;63.27;23.17;;;;;;;-5.54;100.00;102828.16;4987378;28;20790;-75
2022/01/12 00:45:34;;;;;;;61.90;22.20;;;;;;;-5.54;100.00;102823.06;5004637;28;20470;-74
2022/01/12 00:48:00;;;;;;;61.37;22.73;;;;;;;-5.54;100.00;102830.69;5006326;28;20550;-75
2022/01/12 00:50:28;;;;;;;57.97;23.03;;;;;;;-5.44;100.00;102823.75;4987916;28;20491;-75
2022/01/12 00:52:54;;;;;;;59.30;22.80;;;;;;;-5.41;100.00;102821.44;5002995;28;20475;-75
2022/01/12 00:55:21;;;;;;;53.87;21.33;;;;;;;-5.42;100.00;102817.09;5006706;28;20470;-75
2022/01/12 00:57:48;;;;;;;58.70;22.07;;;;;;;-5.37;100.00;102816.66;4987416;28;20456;-73
2022/01/12 01:00:16;;;;;;;56.80;23.33;;;;;;;-5.34;100.00;102816.91;4987241;28;20469;-75
2022/01/12 01:02:43;;;;;;;48.20;21.77;;;;;;;-5.31;100.00;102813.72;5000021;28;20862;-74
2022/01/12 01:05:10;;;;;;;55.10;22.03;;;;;;;-5.28;100.00;102826.63;5004223;28;20455;-75
2022/01/12 01:07:37;;;;;;;52.67;20.73;;;;;;;-5.26;100.00;102816.59;4985364;28;20483;-74
2022/01/12 01:10:05;;;;;;;54.50;22.43;;;;;;;-5.21;100.00;102818.69;5005463;28;20465;-75
2022/01/12 01:12:36;;;;;;;55.13;22.07;;;;;;;-5.15;100.00;102821.69;5006146;28;21073;-75
2022/01/12 01:15:09;;;;;;;53.03;21.30;;;;;;;-5.06;100.00;102813.84;4987717;28;20480;-75
2022/01/12 01:25:59;;;;;;;47.40;20.50;;;;;;;-4.96;100.00;102810.28;4960603;28;20472;-75
2022/01/12 01:28:26;;;;;;;51.07;21.13;;;;;;;-4.94;100.00;102816.41;4992145;28;20480;-74
2022/01/12 01:30:53;;;;;;;56.23;21.97;;;;;;;-4.98;100.00;102812.75;4990336;28;20464;-75
2022/01/12 01:33:26;;;;;;;52.60;21.77;;;;;;;-4.92;100.00;102817.38;5002392;28;21032;-75
2022/01/12 01:35:56;;;;;;;49.67;19.63;;;;;;;-4.90;100.00;102818.38;4990198;28;20473;-74
2022/01/12 01:38:25;;;;;;;52.40;20.13;;;;;;;-4.78;100.00;102806.53;4989686;28;20462;-75
2022/01/12 01:40:52;;;;;;;59.23;21.70;;;;;;;-4.74;100.00;102809.31;5008062;28;20461;-75
2022/01/12 01:43:25;;;;;;;48.67;20.57;;;;;;;-4.74;100.00;102802.53;5008588;28;20484;-74
2022/01/12 01:54:07;;;;;;;52.27;20.37;;;;;;;-4.67;100.00;102802.19;4989023;28;20473;-75
2022/01/12 01:56:35;;;;;;;53.30;21.20;;;;;;;-4.64;100.00;102801.53;4991409;28;20518;-75
2022/01/12 01:59:01;;;;;;;52.83;20.83;;;;;;;-4.64;100.00;102807.50;4988431;28;20477;-75
2022/01/12 02:01:29;;;;;;;49.07;19.07;;;;;;;-4.64;100.00;102799.88;4991587;28;20470;-75
2022/01/12 02:04:01;;;;;;;50.67;18.80;;;;;;;-4.64;100.00;102794.78;4991238;28;20479;-74
2022/01/12 02:06:29;;;;;;;50.50;19.53;;;;;;;-4.57;100.00;102788.47;4992301;28;20454;-75
2022/01/12 02:08:57;;;;;;;51.60;19.17;;;;;;;-4.50;100.00;102789.75;4990750;28;20477;-75
2022/01/12 02:11:35;;;;;;;56.90;20.23;;;;;;;-4.42;100.00;102794.59;4991838;28;20496;-75
2022/01/12 02:14:11;;;;;;;41.50;18.43;;;;;;;-4.38;100.00;102785.50;4990731;28;20485;-75
2022/01/12 02:16:50;;;;;;;45.63;17.47;;;;;;;-4.40;100.00;102787.06;4991487;28;20454;-74
2022/01/12 02:19:40;;;;;;;52.73;18.43;;;;;;;-4.40;100.00;102794.72;5005938;28;20490;-75
2022/01/12 02:35:55;;;;;;;44.10;17.33;;;;;;;-4.28;100.00;102787.91;5008500;28;20449;-75
2022/01/12 02:41:08;;;;;;;48.30;18.67;;;;;;;-4.20;100.00;102791.00;5006062;28;20457;-75
2022/01/12 02:50:33;;;;;;;47.53;18.57;;;;;;;-4.19;100.00;102786.03;5004769;28;20486;-75
2022/01/12 02:54:42;;;;;;;51.03;17.97;;;;;;;-4.03;100.00;102770.13;4986109;28;20458;-75
2022/01/12 02:57:09;;;;;;;46.90;17.93;;;;;;;-4.01;100.00;102783.84;4990419;28;20471;-76
2022/01/12 02:59:36;;;;;;;52.43;18.60;;;;;;;-4.06;100.00;102776.69;4986610;28;20476;-75
2022/01/12 03:02:19;;;;;;;51.40;18.13;;;;;;;-4.04;100.00;102775.09;4989708;28;20504;-74
2022/01/12 03:05:00;;;;;;;44.33;16.43;;;;;;;-4.00;100.00;102766.88;5004225;28;20457;-74
2022/01/12 03:07:31;;;;;;;54.70;18.30;;;;;;;-3.98;100.00;102764.44;5007036;28;20452;-76
2022/01/12 03:09:59;;;;;;;43.63;17.53;;;;;;;-3.96;100.00;102775.63;4986818;28;20471;-75
2022/01/12 03:12:25;;;;;;;43.83;17.13;;;;;;;-4.00;100.00;102777.94;4989397;28;20486;-75
2022/01/12 03:14:52;;;;;;;46.93;17.67;;;;;;;-3.94;100.00;102774.03;4989184;28;20506;-75
2022/01/12 03:17:20;;;;;;;48.03;17.80;;;;;;;-3.91;100.00;102764.06;4989623;28;20850;-75
2022/01/12 03:19:46;;;;;;;51.57;18.97;;;;;;;-3.89;100.00;102765.94;4988992;28;20466;-75
2022/01/12 03:22:13;;;;;;;44.57;17.50;;;;;;;-3.89;100.00;102755.72;4986697;28;20497;-75
2022/01/12 03:24:42;;;;;;;49.60;18.33;;;;;;;-3.89;100.00;102770.16;4988549;28;20554;-76
2022/01/12 03:27:13;;;;;;;51.50;16.43;;;;;;;-3.88;100.00;102769.38;5002065;28;20543;-75
2022/01/12 03:29:41;;;;;;;40.97;16.13;;;;;;;-3.90;100.00;102765.84;4988227;28;20509;-76
2022/01/12 03:32:11;;;;;;;48.40;17.33;;;;;;;-3.88;100.00;102769.38;4986641;28;20972;-75
2022/01/12 03:34:39;;;;;;;54.47;18.27;;;;;;;-3.85;100.00;102777.25;4999936;28;20832;-75
2022/01/12 03:37:28;;;;;;;50.17;17.47;;;;;;;-3.84;100.00;102767.13;5005142;28;20529;-75
2022/01/12 03:39:54;;;;;;;46.37;16.83;;;;;;;-3.82;100.00;102774.88;4989410;28;20469;-76
2022/01/12 03:42:22;;;;;;;46.80;17.13;;;;;;;-3.82;100.00;102775.78;4989688;28;20488;-76
2022/01/12 03:44:49;;;;;;;48.87;17.40;;;;;;;-3.82;100.00;102782.53;5005600;28;20223;-75
2022/01/12 03:47:17;;;;;;;46.90;16.03;;;;;;;-3.83;100.00;102771.44;4986608;28;20475;-75
2022/01/12 03:49:43;;;;;;;48.70;16.73;;;;;;;-3.78;100.00;102774.31;5001550;28;20479;-76
2022/01/12 03:52:09;;;;;;;42.37;16.17;;;;;;;-3.76;100.00;102774.38;4980867;28;21214;-74
2022/01/12 03:54:37;;;;;;;54.03;17.27;;;;;;;-3.74;100.00;102775.41;4988601;28;21157;-75
2022/01/12 03:57:03;;;;;;;48.17;17.73;;;;;;;-3.73;100.00;102774.59;5005430;28;20817;-76
2022/01/12 03:59:32;;;;;;;51.00;17.27;;;;;;;-3.72;100.00;102773.84;4988174;28;20989;-74
2022/01/12 04:01:59;;;;;;;57.57;17.53;;;;;;;-3.75;100.00;102768.53;4988358;28;20466;-75
2022/01/12 04:04:32;;;;;;;46.20;16.50;;;;;;;-3.70;100.00;102778.25;5006529;28;20991;-76
2022/01/12 04:09:44;;;;;;;47.77;16.13;;;;;;;-3.59;100.00;102776.41;4983236;28;20922;-76
2022/01/12 04:12:10;;;;;;;46.03;17.37;;;;;;;-3.64;100.00;102778.66;4988253;28;20266;-77
2022/01/12 04:14:39;;;;;;;43.10;15.30;;;;;;;-3.62;100.00;102779.66;4988572;28;20292;-76
2022/01/12 04:17:06;;;;;;;40.77;15.83;;;;;;;-3.61;100.00;102790.72;4986474;28;20513;-75
2022/01/12 04:19:34;;;;;;;50.13;16.27;;;;;;;-3.59;100.00;102786.59;4988766;28;20196;-74
2022/01/12 04:22:17;;;;;;;43.97;15.60;;;;;;;-3.53;100.00;102788.69;5002853;28;20529;-76
2022/01/12 04:24:44;;;;;;;43.20;16.17;;;;;;;-3.49;100.00;102788.97;4988091;28;20482;-76
2022/01/12 04:27:10;;;;;;;50.37;16.03;;;;;;;-3.53;100.00;102794.66;5006153;28;20466;-76
2022/01/12 04:29:38;;;;;;;41.27;16.17;;;;;;;-3.54;100.00;102790.34;4984155;28;20483;-75
2022/01/12 04:32:05;;;;;;;43.33;16.60;;;;;;;-3.50;100.00;102792.34;4984631;28;20459;-75
2022/01/12 04:34:32;;;;;;;51.60;17.07;;;;;;;-3.46;100.00;102785.75;4987307;28;20208;-74
2022/01/12 04:36:59;;;;;;;45.97;16.70;;;;;;;-3.47;100.00;102787.41;5005222;28;20573;-75
2022/01/12 04:39:25;;;;;;;45.30;15.87;;;;;;;-3.50;100.00;102783.78;4985427;28;20212;-76
2022/01/12 04:41:52;;;;;;;46.90;16.97;;;;;;;-3.48;100.00;102795.00;4983293;28;20200;-75
2022/01/12 04:44:18;;;;;;;40.97;16.50;;;;;;;-3.47;100.00;102795.06;4987320;28;20252;-75
2022/01/12 04:46:52;;;;;;;47.30;16.57;;;;;;;-3.50;100.00;102794.88;4987835;28;20299;-76
2022/01/12 04:52:02;;;;;;;42.90;16.50;;;;;;;-3.49;100.00;102783.88;4980421;28;20208;-76
2022/01/12 04:54:29;;;;;;;49.63;17.03;;;;;;;-3.46;100.00;102783.22;5000170;28;20460;-74
2022/01/12 04:56:56;;;;;;;43.33;16.93;;;;;;;-3.44;100.00;102776.53;4987474;28;20211;-75
2022/01/12 04:59:23;;;;;;;45.90;17.57;;;;;;;-3.46;100.00;102763.69;4988531;28;20212;-76
2022/01/12 05:01:57;;;;;;;49.53;16.57;;;;;;;-3.46;100.00;102763.69;4989620;28;20452;-75
2022/01/12 05:07:25;;;;;;;48.73;16.10;;;;;;;-3.43;100.00;102776.63;4995867;28;20457;-75
2022/01/12 05:12:50;;;;;;;41.53;15.50;;;;;;;-3.38;100.00;102766.72;4989495;28;20573;-76
2022/01/12 05:15:18;;;;;;;43.27;16.20;;;;;;;-3.36;100.00;102769.38;4989536;28;20204;-75
2022/01/12 05:17:47;;;;;;;47.27;16.27;;;;;;;-3.37;100.00;102773.59;5005837;28;20207;-76
2022/01/12 05:20:13;;;;;;;47.03;17.37;;;;;;;-3.30;100.00;102767.22;4989157;28;20203;-75
2022/01/12 05:22:39;;;;;;;47.37;15.67;;;;;;;-3.31;100.00;102768.88;5007588;28;21681;-75
2022/01/12 05:25:07;;;;;;;46.13;16.67;;;;;;;-3.31;100.00;102766.31;4994516;28;20550;-76
2022/01/12 05:27:33;;;;;;;45.50;15.90;;;;;;;-3.33;100.00;102754.28;4986904;28;20196;-76
2022/01/12 05:30:00;;;;;;;51.13;16.03;;;;;;;-3.30;100.00;102765.56;5007580;28;20513;-76
2022/01/12 05:32:27;;;;;;;46.37;16.10;;;;;;;-3.31;100.00;102771.44;4992464;28;20332;-74
2022/01/12 05:35:01;;;;;;;49.07;16.50;;;;;;;-3.32;100.00;102772.22;4990648;28;20385;-76
2022/01/12 05:37:28;;;;;;;45.63;16.00;;;;;;;-3.31;100.00;102773.09;4988655;28;21030;-76
2022/01/12 05:39:54;;;;;;;50.93;16.07;;;;;;;-3.27;100.00;102775.09;4987411;28;20207;-76
2022/01/12 05:42:21;;;;;;;52.43;16.40;;;;;;;-3.28;100.00;102780.97;4990151;28;20223;-76
2022/01/12 05:44:48;;;;;;;48.10;15.87;;;;;;;-3.28;100.00;102784.41;4986241;28;20943;-75
2022/01/12 05:47:32;;;;;;;47.93;15.50;;;;;;;-3.29;100.00;102792.84;4990429;28;20821;-75
2022/01/12 05:49:58;;;;;;;46.90;15.90;;;;;;;-3.25;100.00;102796.50;4987445;28;20571;-75
2022/01/12 05:52:25;;;;;;;48.27;17.23;;;;;;;-3.23;100.00;102800.00;5003091;28;20255;-76
2022/01/12 05:54:51;;;;;;;54.50;18.27;;;;;;;-3.22;100.00;102800.88;4991627;28;20209;-76
2022/01/12 05:57:18;;;;;;;51.00;16.10;;;;;;;-3.18;100.00;102805.41;4989308;28;20274;-75
2022/01/12 05:59:44;;;;;;;51.63;16.53;;;;;;;-3.17;100.00;102799.53;5005427;28;20893;-76
2022/01/12 06:02:11;;;;;;;53.60;17.93;;;;;;;-3.18;100.00;102802.84;5009283;28;20220;-75
2022/01/12 06:04:38;;;;;;;55.07;16.73;;;;;;;-3.15;100.00;102801.41;4990583;28;20267;-76
2022/01/12 06:07:06;;;;;;;52.93;16.43;;;;;;;-3.14;100.00;102802.28;4986940;28;20283;-75
2022/01/12 06:09:33;;;;;;;53.53;16.53;;;;;;;-3.15;100.00;102803.06;4984367;28;20224;-76
2022/01/12 06:11:59;;;;;;;48.90;16.00;;;;;;;-3.13;100.00;102798.94;4987839;28;20200;-75
2022/01/12 06:14:26;;;;;;;52.23;16.20;;;;;;;-3.11;100.00;102797.38;4992128;28;20814;-76
2022/01/12 06:16:52;;;;;;;46.40;15.20;;;;;;;-3.11;100.00;102805.91;5003866;28;20271;-76
2022/01/12 06:19:19;;;;;;;54.30;17.07;;;;;;;-3.13;100.00;102804.03;4989996;28;20255;-75
2022/01/12 06:22:01;;;;;;;48.27;16.27;;;;;;;-3.13;100.00;102794.72;4989943;28;20463;-76
2022/01/12 06:24:31;;;;;;;47.97;15.30;;;;;;;-3.14;100.00;102798.06;4990011;28;20200;-75
2022/01/12 06:26:58;;;;;;;50.93;16.17;;;;;;;-3.14;100.00;102785.28;4987249;28;20211;-76
2022/01/12 06:29:38;;;;;;;54.63;15.60;;;;;;;-3.10;100.00;102776.16;5002743;28;20582;-76
2022/01/12 06:32:05;;;;;;;44.70;14.50;;;;;;;-3.10;100.00;102773.59;4989128;28;20247;-75
2022/01/12 06:34:32;;;;;;;45.20;15.30;;;;;;;-3.13;100.00;102771.75;5005283;28;20209;-75
2022/01/12 06:36:58;;;;;;;40.53;14.50;;;;;;;-3.13;100.00;102776.88;5006182;28;20670;-75
2022/01/12 06:39:26;;;;;;;41.60;15.93;;;;;;;-3.14;100.00;102781.88;5006465;28;20200;-75
2022/01/12 06:41:55;;;;;;;41.80;14.73;;;;;;;-3.11;100.00;102787.19;4989587;28;20564;-76
2022/01/12 06:44:25;;;;;;;44.07;15.70;;;;;;;-3.11;100.00;102785.50;4987920;28;20836;-76
2022/01/12 06:46:53;;;;;;;42.90;14.70;;;;;;;-3.10;100.00;102792.34;4988729;28;20213;-75
2022/01/12 06:49:19;;;;;;;34.97;14.57;;;;;;;-3.08;100.00;102784.78;4988738;28;20193;-76
2022/01/12 06:51:47;;;;;;;44.43;15.63;;;;;;;-3.04;100.00;102784.22;4989076;28;20219;-75
2022/01/12 06:54:16;;;;;;;40.73;15.70;;;;;;;-3.03;100.00;102793.63;5006013;28;20474;-76
2022/01/12 06:56:42;;;;;;;48.17;15.13;;;;;;;-3.06;100.00;102798.53;4986365;28;20570;-75
2022/01/12 06:59:10;;;;;;;48.70;16.17;;;;;;;-3.03;100.00;102790.22;5007206;28;20555;-76
2022/01/12 07:01:37;;;;;;;36.17;14.70;;;;;;;-3.03;100.00;102791.09;4985978;28;20210;-75
2022/01/12 07:04:04;;;;;;;46.97;16.23;;;;;;;-3.07;100.00;102794.22;4988754;28;20894;-76
2022/01/12 07:06:32;;;;;;;39.40;15.37;;;;;;;-3.10;100.00;102797.44;4986860;28;20686;-76
2022/01/12 07:08:58;;;;;;;35.00;15.03;;;;;;;-3.08;100.00;102792.44;4989107;28;20456;-76
2022/01/12 07:11:41;;;;;;;39.10;14.07;;;;;;;-3.09;100.00;102790.69;4984589;28;20209;-76
2022/01/12 07:14:20;;;;;;;37.23;14.83;;;;;;;-3.07;100.00;102792.56;4988533;28;20646;-76
2022/01/12 07:16:47;;;;;;;36.73;15.00;;;;;;;-3.08;100.00;102797.56;5005902;28;20196;-74
2022/01/12 07:19:14;;;;;;;34.90;13.60;;;;;;;-3.09;100.00;102800.91;4986560;28;20196;-75
2022/01/12 07:21:41;;;;;;;34.93;14.57;;;;;;;-3.09;100.00;102809.44;4987672;28;20205;-74
2022/01/12 07:24:08;;;;;;;37.10;14.40;;;;;;;-3.12;100.00;102806.69;4990091;28;20582;-76
2022/01/12 07:26:35;;;;;;;45.63;17.67;;;;;;;-3.11;100.00;102805.03;5006534;28;20200;-76
2022/01/12 07:29:01;;;;;;;47.73;18.70;;;;;;;-3.10;100.00;102804.22;5003587;28;20215;-75
2022/01/12 07:31:29;;;;;;;49.53;20.40;;;;;;;-3.11;100.00;102810.16;5006727;28;20212;-75
2022/01/12 07:33:55;;;;;;;74.93;29.87;;;;;;;-3.11;100.00;102807.59;5005828;28;20235;-76
2022/01/12 07:36:22;;;;;;;108.50;39.00;;;;;;;-3.11;100.00;102805.03;5006373;28;20718;-75
2022/01/12 07:38:53;;;;;;;65.93;23.90;;;;;;;-3.07;100.00;102804.44;5003933;28;20470;-75
2022/01/12 07:41:20;;;;;;;53.13;19.70;;;;;;;-3.03;100.00;102811.50;5005722;28;20495;-76
2022/01/12 07:43:46;;;;;;;65.00;22.77;;;;;;;-3.09;100.00;102808.56;5005137;28;20217;-76
2022/01/12 07:46:13;;;;;;;96.27;32.10;;;;;;;-3.07;100.00;102807.88;5004555;28;20854;-75
2022/01/12 07:48:40;;;;;;;82.40;27.07;;;;;;;-3.08;100.00;102820.53;5005247;28;20216;-76
2022/01/12 07:51:08;;;;;;;59.77;20.60;;;;;;;-3.00;100.00;102821.03;5002947;28;20208;-76
2022/01/12 07:53:34;;;;;;;65.77;22.07;;;;;;;-2.95;100.00;102830.75;5004305;28;20593;-76
2022/01/12 07:56:01;;;;;;;87.23;30.03;;;;;;;-2.93;100.00;102829.19;5004387;28;20609;-76
2022/01/12 07:58:27;;;;;;;95.90;30.87;;;;;;;-2.88;100.00;102827.81;5004013;28;20631;-76
2022/01/12 08:00:54;;;;;;;92.40;30.67;;;;;;;-2.87;100.00;102831.22;5001570;28;20693;-76
2022/01/12 08:03:22;;;;;;;80.47;28.83;;;;;;;-2.81;100.00;102829.09;5003614;28;20216;-75
2022/01/12 08:05:50;;;;;;;55.33;20.50;;;;;;;-2.80;100.00;102828.28;5003637;28;20201;-75
2022/01/12 08:08:17;;;;;;;55.50;19.40;;;;;;;-2.78;100.00;102823.28;4999512;28;20216;-75
2022/01/12 08:10:43;;;;;;;68.70;23.93;;;;;;;-2.71;100.00;102822.88;5003809;28;20243;-75
2022/01/12 08:13:10;;;;;;;63.20;22.57;;;;;;;-2.67;100.00;102822.31;4998468;28;20240;-76
2022/01/12 08:15:36;;;;;;;56.67;20.87;;;;;;;-2.63;100.00;102828.50;5006151;28;20210;-76
2022/01/12 08:18:03;;;;;;;51.47;19.90;;;;;;;-2.64;100.00;102822.47;5000638;28;20204;-76
2022/01/12 08:20:30;;;;;;;53.07;18.43;;;;;;;-2.61;100.00;102825.22;5002606;28;20566;-76
2022/01/12 08:22:59;;;;;;;54.23;19.30;;;;;;;-2.58;100.00;102819.44;5003814;28;20233;-74
2022/01/12 08:25:26;;;;;;;51.83;19.07;;;;;;;-2.57;100.00;102814.44;5004191;28;20201;-75
2022/01/12 08:27:52;;;;;;;51.70;19.50;;;;;;;-2.50;100.00;102819.16;5005200;28;20225;-76
2022/01/12 08:30:27;;;;;;;47.73;18.33;;;;;;;-2.55;100.00;102829.84;5002172;28;20223;-76
2022/01/12 08:32:54;;;;;;;54.70;18.50;;;;;;;-2.51;100.00;102830.13;5003079;28;20223;-76
2022/01/12 08:35:20;;;;;;;54.47;18.63;;;;;;;-2.45;100.00;102824.53;5002956;28;20201;-76
2022/01/12 08:37:47;;;;;;;57.03;20.10;;;;;;;-2.41;100.00;102823.03;5005310;28;20204;-75
2022/01/12 08:40:17;;;;;;;58.50;20.90;;;;;;;-2.34;100.00;102831.19;5000472;28;20200;-76
2022/01/12 08:42:44;;;;;;;56.60;20.67;;;;;;;-2.28;100.00;102828.13;4999556;28;20213;-75
2022/01/12 08:45:12;;;;;;;61.97;23.07;;;;;;;-2.25;100.00;102823.22;5003013;28;20204;-76
2022/01/12 08:47:39;;;;;;;53.10;20.70;;;;;;;-2.22;100.00;102823.38;5004275;28;20204;-76
2022/01/12 08:50:06;;;;;;;53.53;20.63;;;;;;;-2.20;100.00;102821.81;4997908;28;21014;-75
2022/01/12 08:52:33;;;;;;;53.93;20.63;;;;;;;-2.15;100.00;102822.97;5001955;28;20243;-76
2022/01/12 08:55:00;;;;;;;50.70;19.43;;;;;;;-2.08;100.00;102825.91;5004395;28;20196;-76
2022/01/12 08:57:29;;;;;;;54.73;19.67;;;;;;;-2.04;100.00;102828.75;5000087;28;20205;-75
2022/01/12 08:59:56;;;;;;;60.67;20.23;;;;;;;-1.97;100.00;102836.00;5002745;28;20704;-77
2022/01/12 09:02:22;;;;;;;60.77;19.57;;;;;;;-1.97;100.00;102833.44;5002697;28;20225;-76
2022/01/12 09:04:49;;;;;;;53.67;19.87;;;;;;;-1.93;100.00;102839.63;5002811;28;20219;-75
2022/01/12 09:07:15;;;;;;;46.00;18.87;;;;;;;-1.85;100.00;102840.06;5000388;28;20271;-76
2022/01/12 09:09:42;;;;;;;59.83;21.50;;;;;;;-1.84;100.00;102839.31;5000814;28;20478;-76
2022/01/12 09:12:09;;;;;;;56.70;21.63;;;;;;;-1.78;100.00;102842.22;5003924;28;20247;-76
2022/01/12 09:14:37;;;;;;;60.40;21.37;;;;;;;-1.72;100.00;102840.91;4999537;28;20211;-75
2022/01/12 09:17:04;;;;;;;62.90;22.53;;;;;;;-1.72;100.00;102834.91;5001856;28;20207;-76
2022/01/12 09:19:30;;;;;;;58.00;21.77;;;;;;;-1.68;100.00;102841.09;4998346;28;20209;-76
2022/01/12 09:21:57;;;;;;;59.57;21.13;;;;;;;-1.65;100.00;102836.13;5003808;28;20231;-77
2022/01/12 09:24:23;;;;;;;52.83;20.93;;;;;;;-1.60;100.00;102832.19;5002576;28;20701;-75
2022/01/12 09:26:50;;;;;;;47.30;19.77;;;;;;;-1.59;100.00;102827.16;5002597;28;20670;-76
2022/01/12 09:29:17;;;;;;;46.43;19.83;;;;;;;-1.60;100.00;102821.94;5003748;28;20211;-76
2022/01/12 09:31:45;;;;;;;49.33;20.13;;;;;;;-1.61;100.00;102828.75;5003562;28;20225;-76
2022/01/12 09:34:12;;;;;;;50.27;19.63;;;;;;;-1.55;100.00;102828.22;5003628;28;20243;-76
2022/01/12 09:36:38;;;;;;;52.07;20.13;;;;;;;-1.52;100.00;102847.19;5004311;28;20207;-76
2022/01/12 09:39:06;;;;;;;49.93;18.87;;;;;;;-1.45;100.00;102852.69;5003541;28;20213;-76
2022/01/12 09:41:33;;;;;;;47.83;20.23;;;;;;;-1.38;100.00;102853.13;4997663;28;20532;-76
2022/01/12 09:43:59;;;;;;;48.57;19.50;;;;;;;-1.33;100.00;102856.84;5003550;28;20664;-76
2022/01/12 09:46:27;;;;;;;57.30;22.03;;;;;;;-1.28;100.00;102856.25;5002949;28;20192;-76
2022/01/12 09:48:55;;;;;;;59.23;22.23;;;;;;;-1.30;100.00;102855.25;5007361;28;20207;-76
2022/01/12 09:51:22;;;;;;;49.20;20.03;;;;;;;-1.23;100.00;102842.91;5006678;28;20221;-75
2022/01/12 09:53:50;;;;;;;50.17;19.87;;;;;;;-1.26;100.00;102842.72;5004366;28;20609;-75
2022/01/12 09:56:20;;;;;;;48.80;19.70;;;;;;;-1.24;100.00;102835.13;5005129;28;20223;-75
2022/01/12 09:58:54;;;;;;;51.27;19.70;;;;;;;-1.21;100.00;102835.31;4987102;28;20693;-76
2022/01/12 10:01:25;;;;;;;55.53;22.13;;;;;;;-1.18;100.00;102823.56;5005310;28;20219;-75
2022/01/12 10:03:52;;;;;;;48.87;20.50;;;;;;;-1.13;100.00;102828.06;5004866;28;21025;-76
2022/01/12 10:06:20;;;;;;;46.57;18.90;;;;;;;-1.08;100.00;102837.75;5007704;28;20288;-74
2022/01/12 10:08:47;;;;;;;50.67;20.93;;;;;;;-1.03;100.00;102831.22;5005652;28;20691;-74
2022/01/12 10:11:15;;;;;;;55.70;21.17;;;;;;;-0.92;100.00;102834.38;5008667;28;20217;-74
2022/01/12 10:13:56;;;;;;;50.80;20.37;;;;;;;-0.75;100.00;102821.66;4987531;28;20227;-74
2022/01/12 10:16:26;;;;;;;53.37;21.40;;;;;;;-0.65;100.00;102822.25;5006934;28;20215;-76
2022/01/12 10:18:54;;;;;;;54.50;21.20;;;;;;;-0.60;100.00;102825.03;5005058;28;20224;-75
2022/01/12 10:21:31;;;;;;;45.23;19.07;;;;;;;-0.64;100.00;102813.75;5005961;28;20706;-75
2022/01/12 10:24:00;;;;;;;50.37;20.00;;;;;;;-0.65;100.00;102819.69;5004859;28;20228;-74
2022/01/12 10:26:32;;;;;;;48.17;19.43;;;;;;;-0.68;100.00;102811.81;5002733;28;20813;-76
2022/01/12 10:29:06;;;;;;;47.83;19.33;;;;;;;-0.68;100.00;102818.63;4988416;28;20657;-76
2022/01/12 10:31:43;;;;;;;42.60;18.30;;;;;;;-0.71;100.00;102815.91;5004946;28;20219;-75
2022/01/12 10:34:10;;;;;;;42.53;18.17;;;;;;;-0.74;100.00;102819.16;5004949;28;20219;-75
2022/01/12 10:36:39;;;;;;;40.20;18.07;;;;;;;-0.73;100.00;102814.94;5002019;28;20197;-76
2022/01/12 10:39:06;;;;;;;42.47;17.77;;;;;;;-0.75;100.00;102809.72;4994913;28;20212;-76
2022/01/12 10:41:33;;;;;;;39.57;17.70;;;;;;;-0.75;100.00;102809.72;5002129;28;20212;-76
2022/01/12 10:43:59;;;;;;;39.10;17.37;;;;;;;-0.70;100.00;102799.72;5006682;28;20213;-76
2022/01/12 10:46:26;;;;;;;40.03;17.23;;;;;;;-0.69;100.00;102798.94;5002316;28;20197;-76
2022/01/12 10:48:54;;;;;;;43.50;17.70;;;;;;;-0.66;100.00;102796.53;5005782;28;20211;-75
2022/01/12 10:51:23;;;;;;;41.37;16.57;;;;;;;-0.64;100.00;102789.81;5005492;28;20613;-74
2022/01/12 10:53:52;;;;;;;41.13;17.87;;;;;;;-0.56;100.00;102788.56;5004055;28;20781;-75
2022/01/12 10:56:20;;;;;;;38.93;17.17;;;;;;;-0.51;100.00;102784.56;5005159;28;20211;-76
2022/01/12 10:58:48;;;;;;;41.77;17.80;;;;;;;-0.50;100.00;102776.06;5003818;28;20415;-75
2022/01/12 11:01:17;;;;;;;44.80;17.17;;;;;;;-0.47;100.00;102783.91;5006097;28;20193;-76
2022/01/12 11:03:44;;;;;;;39.90;18.30;;;;;;;-0.41;100.00;102779.09;5004181;28;20216;-75
2022/01/12 11:06:11;;;;;;;40.50;17.93;;;;;;;-0.36;100.00;102783.63;5008428;28;20207;-74
2022/01/12 11:08:39;;;;;;;40.17;16.77;;;;;;;-0.35;100.00;102785.38;5004546;28;20579;-75
2022/01/12 11:11:07;;;;;;;44.03;18.83;;;;;;;-0.28;100.00;102780.66;5005911;28;20548;-74
2022/01/12 11:13:35;;;;;;;42.10;17.70;;;;;;;-0.23;100.00;102776.66;5005485;28;20594;-73
2022/01/12 11:16:01;;;;;;;42.97;16.67;;;;;;;-0.17;100.00;102775.22;5006149;28;20209;-75
2022/01/12 11:18:31;;;;;;;41.53;16.80;;;;;;;-0.14;100.00;102783.06;5006061;28;20204;-74
2022/01/12 11:21:02;;;;;;;42.50;17.60;;;;;;;-0.07;100.00;102791.16;5004120;28;20207;-74
2022/01/12 11:23:36;;;;;;;42.63;17.83;;;;;;;0.02;100.00;102787.28;5007954;28;20231;-73
2022/01/12 11:26:15;;;;;;;42.47;16.93;;;;;;;0.10;100.00;102786.00;5003494;28;20204;-74
2022/01/12 11:28:42;;;;;;;40.27;17.30;;;;;;;0.14;100.00;102778.56;5006272;28;20205;-75
2022/01/12 11:31:09;;;;;;;40.13;17.13;;;;;;;0.19;100.00;102776.22;5004755;28;20212;-74
2022/01/12 11:33:40;;;;;;;40.63;17.57;;;;;;;0.23;100.00;102767.88;5005345;28;20220;-75
2022/01/12 11:36:18;;;;;;;37.13;15.93;;;;;;;0.31;100.00;102769.13;5002467;28;20236;-75
2022/01/12 11:38:47;;;;;;;37.43;15.67;;;;;;;0.38;100.00;102766.06;5005080;28;20211;-75
2022/01/12 11:41:18;;;;;;;39.10;16.67;;;;;;;0.40;100.00;102765.28;5004599;28;20267;-75
2022/01/12 11:43:46;;;;;;;40.50;15.80;;;;;;;0.45;100.00;102768.97;4986553;28;20242;-74
2022/01/12 11:46:15;;;;;;;36.13;15.40;;;;;;;0.48;100.00;102757.16;5004215;28;20205;-74
2022/01/12 11:48:46;;;;;;;35.33;14.47;;;;;;;0.58;100.00;102755.91;5003270;28;20204;-75
2022/01/12 11:51:14;;;;;;;33.27;14.77;;;;;;;0.62;100.00;102754.41;5002930;28;20756;-75
2022/01/12 11:53:45;;;;;;;33.63;13.67;;;;;;;0.71;100.00;102753.13;4999659;28;20779;-75
2022/01/12 11:56:15;;;;;;;31.00;13.10;;;;;;;0.78;100.00;102751.75;5003775;28;20205;-75
2022/01/12 11:58:57;;;;;;;31.03;13.93;;;;;;;0.85;100.00;102758.94;5002096;28;20205;-75
2022/01/12 12:01:25;;;;;;;31.97;13.63;;;;;;;0.93;100.00;102760.19;5004164;28;20248;-75
2022/01/12 12:04:04;;;;;;;30.67;12.93;;;;;;;1.00;100.00;102760.47;4999893;28;20224;-75
2022/01/12 12:06:31;;;;;;;29.97;13.20;;;;;;;1.07;100.00;102770.22;5002775;28;20208;-75